Time,TemperatureF,DewpointF,PressureIn,WindDirection,WindDirectionDegrees,WindSpeedMPH,WindSpeedGustMPH,Humidity,HourlyPrecipIn,Conditions,Clouds,dailyrainin,SoftwareType,DateUTC
2013-02-11 00:00:00,43.0,42.0,30.35,NNW,340,3.0,5.0,95,-99.99,,,-99.99,,2013-02-11 08:00:00,
2013-02-11 00:21:00,43.0,42.0,30.35,NNW,340,3.0,5.0,95,-99.99,,,-99.99,,2013-02-11 08:21:00,
2013-02-11 00:31:00,43.0,42.0,30.35,NNW,340,3.0,5.0,95,-99.99,,,-99.99,,2013-02-11 08:31:00,
2013-02-11 00:42:00,43.0,42.0,30.35,NNW,340,3.0,5.0,95,-99.99,,,-99.99,,2013-02-11 08:42:00,
2013-02-11 00:51:00,43.0,42.0,30.35,NNW,340,3.0,5.0,95,-99.99,,,-99.99,,2013-02-11 08:51:00,
2013-02-11 01:00:00,43.0,42.0,30.36,North,10,5.0,6.0,93,-99.99,,,-99.99,,2013-02-11 09:00:00,
2013-02-11 01:21:00,43.0,42.0,30.36,North,10,5.0,6.0,93,-99.99,,,-99.99,,2013-02-11 09:21:00,
2013-02-11 01:31:00,43.0,42.0,30.36,North,10,5.0,6.0,93,-99.99,,,-99.99,,2013-02-11 09:31:00,
2013-02-11 01:41:00,43.0,42.0,30.36,North,10,5.0,6.0,93,-99.99,,,-99.99,,2013-02-11 09:41:00,
2013-02-11 01:51:00,43.0,42.0,30.36,North,10,5.0,6.0,93,-99.99,,,-99.99,,2013-02-11 09:51:00,
2013-02-11 02:00:00,43.0,41.0,30.35,SE,140,2.0,3.0,92,-99.99,,,-99.99,,2013-02-11 10:00:00,
2013-02-11 02:21:00,43.0,41.0,30.35,SE,140,2.0,3.0,92,-99.99,,,-99.99,,2013-02-11 10:21:00,
2013-02-11 02:31:00,43.0,41.0,30.35,SE,140,2.0,3.0,92,-99.99,,,-99.99,,2013-02-11 10:31:00,
2013-02-11 02:41:00,43.0,41.0,30.35,SE,140,2.0,3.0,92,-99.99,,,-99.99,,2013-02-11 10:41:00,
2013-02-11 02:51:00,43.0,41.0,30.35,SE,140,2.0,3.0,92,-99.99,,,-99.99,,2013-02-11 10:51:00,
2013-02-11 03:00:00,42.0,40.0,30.35,SE,140,3.0,5.0,93,-99.99,,,-99.99,,2013-02-11 11:00:00,
2013-02-11 03:21:00,42.0,40.0,30.35,SE,140,3.0,5.0,93,-99.99,,,-99.99,,2013-02-11 11:21:00,
2013-02-11 03:32:00,42.0,40.0,30.35,SE,140,3.0,5.0,93,-99.99,,,-99.99,,2013-02-11 11:32:00,
2013-02-11 03:42:00,42.0,40.0,30.35,SE,140,3.0,5.0,93,-99.99,,,-99.99,,2013-02-11 11:42:00,
2013-02-11 03:52:00,42.0,40.0,30.35,SE,140,3.0,5.0,93,-99.99,,,-99.99,,2013-02-11 11:52:00,
2013-02-11 04:00:00,43.0,41.0,30.34,WSW,250,5.0,6.0,93,-99.99,,,-99.99,,2013-02-11 12:00:00,
2013-02-11 04:22:00,43.0,41.0,30.34,WSW,250,5.0,6.0,93,-99.99,,,-99.99,,2013-02-11 12:22:00,
2013-02-11 04:31:00,43.0,41.0,30.34,WSW,250,5.0,6.0,93,-99.99,,,-99.99,,2013-02-11 12:31:00,
2013-02-11 04:42:00,43.0,41.0,30.34,WSW,250,5.0,6.0,93,-99.99,,,-99.99,,2013-02-11 12:42:00,
2013-02-11 04:52:00,43.0,41.0,30.34,WSW,250,5.0,6.0,93,-99.99,,,-99.99,,2013-02-11 12:52:00,
2013-02-11 05:00:00,43.0,41.0,30.35,SW,230,6.0,7.0,93,-99.99,,,-99.99,,2013-02-11 13:00:00,
2013-02-11 05:21:00,43.0,41.0,30.35,SW,230,6.0,7.0,93,-99.99,,,-99.99,,2013-02-11 13:21:00,
2013-02-11 05:32:00,43.0,41.0,30.35,SW,230,6.0,7.0,93,-99.99,,,-99.99,,2013-02-11 13:32:00,
2013-02-11 05:41:00,43.0,41.0,30.35,SW,230,6.0,7.0,93,-99.99,,,-99.99,,2013-02-11 13:41:00,
2013-02-11 05:51:00,43.0,41.0,30.35,SW,230,6.0,7.0,93,-99.99,,,-99.99,,2013-02-11 13:51:00,
2013-02-11 06:00:00,43.0,40.0,30.35,SSW,200,3.0,3.0,90,-99.99,,,-99.99,,2013-02-11 14:00:00,
2013-02-11 06:21:00,43.0,40.0,30.35,SSW,200,3.0,3.0,90,-99.99,,,-99.99,,2013-02-11 14:21:00,
2013-02-11 06:32:00,43.0,40.0,30.35,SSW,200,3.0,3.0,90,-99.99,,,-99.99,,2013-02-11 14:32:00,
2013-02-11 06:41:00,43.0,40.0,30.35,SSW,200,3.0,3.0,90,-99.99,,,-99.99,,2013-02-11 14:41:00,
2013-02-11 06:52:00,43.0,40.0,30.35,SSW,200,3.0,3.0,90,-99.99,,,-99.99,,2013-02-11 14:52:00,
2013-02-11 07:00:00,43.0,41.0,30.35,South,170,5.0,6.0,93,-99.99,,,-99.99,,2013-02-11 15:00:00,
2013-02-11 07:21:00,43.0,41.0,30.35,South,170,5.0,6.0,93,-99.99,,,-99.99,,2013-02-11 15:21:00,
2013-02-11 07:31:00,43.0,41.0,30.35,South,170,5.0,6.0,93,-99.99,,,-99.99,,2013-02-11 15:31:00,
2013-02-11 07:41:00,43.0,41.0,30.35,South,170,5.0,6.0,93,-99.99,,,-99.99,,2013-02-11 15:41:00,
2013-02-11 07:51:00,43.0,41.0,30.35,South,170,5.0,6.0,93,-99.99,,,-99.99,,2013-02-11 15:51:00,
2013-02-11 08:00:00,43.0,41.0,30.34,SSW,210,8.0,9.0,93,-99.99,,,-99.99,,2013-02-11 16:00:00,
2013-02-11 08:21:00,43.0,41.0,30.34,SSW,210,8.0,9.0,93,-99.99,,,-99.99,,2013-02-11 16:21:00,
2013-02-11 08:31:00,43.0,41.0,30.34,SSW,210,8.0,9.0,93,-99.99,,,-99.99,,2013-02-11 16:31:00,
2013-02-11 08:41:00,43.0,41.0,30.34,SSW,210,8.0,9.0,93,-99.99,,,-99.99,,2013-02-11 16:41:00,
2013-02-11 08:51:00,43.0,41.0,30.34,SSW,210,8.0,9.0,93,-99.99,,,-99.99,,2013-02-11 16:51:00,
2013-02-11 09:00:00,42.0,41.0,30.35,SW,220,8.0,9.0,94,-99.99,,,-99.99,,2013-02-11 17:00:00,
2013-02-11 09:21:00,42.0,41.0,30.35,SW,220,8.0,9.0,94,-99.99,,,-99.99,,2013-02-11 17:21:00,
2013-02-11 09:31:00,42.0,41.0,30.35,SW,220,8.0,9.0,94,-99.99,,,-99.99,,2013-02-11 17:31:00,
2013-02-11 09:41:00,42.0,41.0,30.35,SW,220,8.0,9.0,94,-99.99,,,-99.99,,2013-02-11 17:41:00,
2013-02-11 09:52:00,42.0,41.0,30.35,SW,220,8.0,9.0,94,-99.99,,,-99.99,,2013-02-11 17:52:00,
2013-02-11 10:00:00,43.0,40.0,30.36,South,190,8.0,9.0,91,-99.99,,,-99.99,,2013-02-11 18:00:00,
2013-02-11 10:21:00,43.0,40.0,30.36,South,190,8.0,9.0,91,-99.99,,,-99.99,,2013-02-11 18:21:00,
2013-02-11 10:31:00,43.0,40.0,30.36,South,190,8.0,9.0,91,-99.99,,,-99.99,,2013-02-11 18:31:00,
2013-02-11 10:41:00,43.0,40.0,30.36,South,190,8.0,9.0,91,-99.99,,,-99.99,,2013-02-11 18:41:00,
2013-02-11 10:52:00,43.0,40.0,30.36,South,190,8.0,9.0,91,-99.99,,,-99.99,,2013-02-11 18:52:00,
2013-02-11 11:00:00,44.0,41.0,30.36,South,180,9.0,11.0,90,-99.99,,,-99.99,,2013-02-11 19:00:00,
2013-02-11 11:21:00,44.0,41.0,30.36,South,180,9.0,11.0,90,-99.99,,,-99.99,,2013-02-11 19:21:00,
2013-02-11 11:31:00,44.0,41.0,30.36,South,180,9.0,11.0,90,-99.99,,,-99.99,,2013-02-11 19:31:00,
2013-02-11 11:41:00,44.0,41.0,30.36,South,180,9.0,11.0,90,-99.99,,,-99.99,,2013-02-11 19:41:00,
2013-02-11 11:51:00,44.0,41.0,30.36,South,180,9.0,11.0,90,-99.99,,,-99.99,,2013-02-11 19:51:00,
2013-02-11 12:00:00,44.0,41.0,30.35,South,170,10.0,11.0,88,-99.99,,,-99.99,,2013-02-11 20:00:00,
2013-02-11 12:21:00,44.0,41.0,30.35,South,170,10.0,11.0,88,-99.99,,,-99.99,,2013-02-11 20:21:00,
2013-02-11 12:31:00,44.0,41.0,30.35,South,170,10.0,11.0,88,-99.99,,,-99.99,,2013-02-11 20:31:00,
2013-02-11 12:41:00,44.0,41.0,30.35,South,170,10.0,11.0,88,-99.99,,,-99.99,,2013-02-11 20:41:00,
2013-02-11 12:51:00,44.0,41.0,30.35,South,170,10.0,11.0,88,-99.99,,,-99.99,,2013-02-11 20:51:00,
2013-02-11 13:00:00,45.0,40.0,30.34,South,180,11.0,13.0,82,-99.99,,,-99.99,,2013-02-11 21:00:00,
2013-02-11 13:21:00,45.0,40.0,30.34,South,180,11.0,13.0,82,-99.99,,,-99.99,,2013-02-11 21:21:00,
2013-02-11 13:31:00,45.0,40.0,30.34,South,180,11.0,13.0,82,-99.99,,,-99.99,,2013-02-11 21:31:00,
2013-02-11 13:41:00,45.0,40.0,30.34,South,180,11.0,13.0,82,-99.99,,,-99.99,,2013-02-11 21:41:00,
2013-02-11 13:51:00,45.0,40.0,30.34,South,180,11.0,13.0,82,-99.99,,,-99.99,,2013-02-11 21:51:00,
2013-02-11 14:00:00,46.0,39.0,30.34,South,180,11.0,13.0,77,-99.99,,,-99.99,,2013-02-11 22:00:00,
2013-02-11 14:21:00,46.0,39.0,30.34,South,180,11.0,13.0,77,-99.99,,,-99.99,,2013-02-11 22:21:00,
2013-02-11 14:31:00,46.0,39.0,30.34,South,180,11.0,13.0,77,-99.99,,,-99.99,,2013-02-11 22:31:00,
2013-02-11 14:41:00,46.0,39.0,30.34,South,180,11.0,13.0,77,-99.99,,,-99.99,,2013-02-11 22:41:00,
2013-02-11 14:51:00,46.0,39.0,30.34,South,180,11.0,13.0,77,-99.99,,,-99.99,,2013-02-11 22:51:00,
2013-02-11 15:00:00,46.0,39.0,30.34,South,180,10.0,10.0,77,-99.99,,,-99.99,,2013-02-11 23:00:00,
2013-02-11 15:21:00,46.0,39.0,30.34,South,180,10.0,10.0,77,-99.99,,,-99.99,,2013-02-11 23:21:00,
2013-02-11 15:31:00,46.0,39.0,30.34,South,180,10.0,10.0,77,-99.99,,,-99.99,,2013-02-11 23:31:00,
2013-02-11 15:41:00,46.0,39.0,30.34,South,180,10.0,10.0,77,-99.99,,,-99.99,,2013-02-11 23:41:00,
2013-02-11 15:51:00,46.0,39.0,30.34,South,180,10.0,10.0,77,-99.99,,,-99.99,,2013-02-11 23:51:00,
2013-02-11 16:00:00,46.0,41.0,30.33,SSW,200,10.0,10.0,82,-99.99,,,-99.99,,2013-02-12 00:00:00,
2013-02-11 16:21:00,46.0,41.0,30.33,SSW,200,10.0,10.0,82,-99.99,,,-99.99,,2013-02-12 00:21:00,
2013-02-11 16:31:00,46.0,41.0,30.33,SSW,200,10.0,10.0,82,-99.99,,,-99.99,,2013-02-12 00:31:00,
2013-02-11 16:41:00,46.0,41.0,30.33,SSW,200,10.0,10.0,82,-99.99,,,-99.99,,2013-02-12 00:41:00,
2013-02-11 16:51:00,46.0,41.0,30.33,SSW,200,10.0,10.0,82,-99.99,,,-99.99,,2013-02-12 00:51:00,
2013-02-11 17:00:00,45.0,42.0,30.34,SSW,210,7.0,8.0,87,-99.99,,,-99.99,,2013-02-12 01:00:00,
2013-02-11 17:21:00,45.0,42.0,30.34,SSW,210,7.0,8.0,87,-99.99,,,-99.99,,2013-02-12 01:21:00,
2013-02-11 17:31:00,45.0,42.0,30.34,SSW,210,7.0,8.0,87,-99.99,,,-99.99,,2013-02-12 01:31:00,
2013-02-11 17:41:00,45.0,42.0,30.34,SSW,210,7.0,8.0,87,-99.99,,,-99.99,,2013-02-12 01:41:00,
2013-02-11 17:51:00,45.0,42.0,30.34,SSW,210,7.0,8.0,87,-99.99,,,-99.99,,2013-02-12 01:51:00,
2013-02-11 18:00:00,46.0,42.0,30.35,SSW,210,3.0,5.0,87,-99.99,,,-99.99,,2013-02-12 02:00:00,
2013-02-11 18:21:00,46.0,42.0,30.35,SSW,210,3.0,5.0,87,-99.99,,,-99.99,,2013-02-12 02:21:00,
2013-02-11 18:31:00,46.0,42.0,30.35,SSW,210,3.0,5.0,87,-99.99,,,-99.99,,2013-02-12 02:31:00,
2013-02-11 18:41:00,46.0,42.0,30.35,SSW,210,3.0,5.0,87,-99.99,,,-99.99,,2013-02-12 02:41:00,
2013-02-11 18:52:00,46.0,42.0,30.35,SSW,210,3.0,5.0,87,-99.99,,,-99.99,,2013-02-12 02:52:00,
2013-02-11 19:00:00,46.0,43.0,30.34,SSW,200,8.0,8.0,88,-99.99,,,-99.99,,2013-02-12 03:00:00,
2013-02-11 19:21:00,46.0,43.0,30.34,SSW,200,8.0,8.0,88,-99.99,,,-99.99,,2013-02-12 03:21:00,
2013-02-11 19:31:00,46.0,43.0,30.34,SSW,200,8.0,8.0,88,-99.99,,,-99.99,,2013-02-12 03:31:00,
2013-02-11 19:41:00,46.0,43.0,30.34,SSW,200,8.0,8.0,88,-99.99,,,-99.99,,2013-02-12 03:41:00,
2013-02-11 19:51:00,46.0,43.0,30.34,SSW,200,8.0,8.0,88,-99.99,,,-99.99,,2013-02-12 03:51:00,
2013-02-11 20:00:00,45.0,44.0,30.35,SSW,200,5.0,6.0,92,-99.99,,,-99.99,,2013-02-12 04:00:00,
2013-02-11 20:21:00,45.0,44.0,30.35,SSW,200,5.0,6.0,92,-99.99,,,-99.99,,2013-02-12 04:21:00,
2013-02-11 20:31:00,45.0,44.0,30.35,SSW,200,5.0,6.0,92,-99.99,,,-99.99,,2013-02-12 04:31:00,
2013-02-11 20:41:00,45.0,44.0,30.35,SSW,200,5.0,6.0,92,-99.99,,,-99.99,,2013-02-12 04:41:00,
2013-02-11 20:51:00,45.0,44.0,30.35,SSW,200,5.0,6.0,92,-99.99,,,-99.99,,2013-02-12 04:51:00,
2013-02-11 21:00:00,45.0,44.0,30.33,South,190,7.0,8.0,95,-99.99,,,-99.99,,2013-02-12 05:00:00,
2013-02-11 21:21:00,45.0,44.0,30.33,South,190,7.0,8.0,95,-99.99,,,-99.99,,2013-02-12 05:21:00,
2013-02-11 21:31:00,45.0,44.0,30.33,South,190,7.0,8.0,95,-99.99,,,-99.99,,2013-02-12 05:31:00,
2013-02-11 21:41:00,45.0,44.0,30.33,South,190,7.0,8.0,95,-99.99,,,-99.99,,2013-02-12 05:41:00,
2013-02-11 21:52:00,45.0,44.0,30.33,South,190,7.0,8.0,95,-99.99,,,-99.99,,2013-02-12 05:52:00,
2013-02-11 22:00:00,45.0,45.0,30.35,West,270,2.0,2.0,97,-99.99,,,-99.99,,2013-02-12 06:00:00,
2013-02-11 22:21:00,45.0,45.0,30.35,West,270,2.0,2.0,97,-99.99,,,-99.99,,2013-02-12 06:21:00,
2013-02-11 22:31:00,45.0,45.0,30.35,West,270,2.0,2.0,97,-99.99,,,-99.99,,2013-02-12 06:31:00,
2013-02-11 22:42:00,45.0,45.0,30.35,West,270,2.0,2.0,97,-99.99,,,-99.99,,2013-02-12 06:42:00,
2013-02-11 22:51:00,45.0,45.0,30.35,West,270,2.0,2.0,97,-99.99,,,-99.99,,2013-02-12 06:51:00,
2013-02-11 23:00:00,45.0,45.0,30.35,North,0,0.0,1.0,99,-99.99,,,-99.99,,2013-02-12 07:00:00,
2013-02-11 23:21:00,45.0,45.0,30.35,North,0,0.0,1.0,99,-99.99,,,-99.99,,2013-02-12 07:21:00,
2013-02-11 23:31:00,45.0,45.0,30.35,North,0,0.0,1.0,99,-99.99,,,-99.99,,2013-02-12 07:31:00,
2013-02-11 23:41:00,45.0,45.0,30.35,North,0,0.0,1.0,99,-99.99,,,-99.99,,2013-02-12 07:41:00,
2013-02-11 23:51:00,45.0,45.0,30.35,North,0,0.0,1.0,99,-99.99,,,-99.99,,2013-02-12 07:51:00,